createdAt,value
2022-10-13T00:00:29.565Z,102126.25
2022-10-13T00:03:02.913Z,102122.72
2022-10-13T00:05:34.849Z,102126.22
2022-10-13T00:08:03.140Z,102124.47
2022-10-13T00:10:31.103Z,102123.56
2022-10-13T00:13:05.086Z,102114.78
2022-10-13T00:15:32.766Z,102115.56
2022-10-13T00:18:00.212Z,102118.13
2022-10-13T00:20:30.244Z,102117.25
2022-10-13T00:23:01.469Z,102115.44
2022-10-13T00:25:29.284Z,102125.09
2022-10-13T00:28:00.753Z,102125.97
2022-10-13T00:30:40.961Z,102118.13
2022-10-13T00:33:09.561Z,102115.50
2022-10-13T00:35:51.167Z,102126.97
2022-10-13T00:38:22.269Z,102121.72
2022-10-13T00:41:06.436Z,102120.84
2022-10-13T00:44:08.932Z,102121.72
2022-10-13T00:46:40.183Z,102117.31
2022-10-13T00:49:17.600Z,102118.16
2022-10-13T00:51:50.380Z,102113.81
2022-10-13T00:54:25.902Z,102117.28
2022-10-13T00:57:00.256Z,102121.66
2022-10-13T01:02:39.992Z,102118.19
2022-10-13T01:05:09.954Z,102118.13
2022-10-13T01:07:50.068Z,102119.00
2022-10-13T01:10:51.336Z,102123.38
2022-10-13T01:13:43.881Z,102130.44
2022-10-13T01:16:41.881Z,102125.97
2022-10-13T01:19:58.927Z,102138.31
2022-10-13T01:23:05.252Z,102137.41
2022-10-13T01:25:49.174Z,102143.47
2022-10-13T01:28:41.411Z,102135.66
2022-10-13T01:31:28.439Z,102136.53
2022-10-13T01:34:07.068Z,102132.16
2022-10-13T01:37:28.304Z,102126.88
2022-10-13T01:40:24.418Z,102123.41
2022-10-13T01:43:32.296Z,102121.56
2022-10-13T01:46:21.998Z,102121.59
2022-10-13T01:48:52.909Z,102124.22
2022-10-13T01:51:40.818Z,102125.97
2022-10-13T01:54:24.956Z,102119.78
2022-10-13T01:57:11.738Z,102113.63
2022-10-13T02:00:05.226Z,102110.94
2022-10-13T02:03:10.267Z,102110.16
2022-10-13T02:05:50.432Z,102119.72
2022-10-13T02:09:03.777Z,102109.09
2022-10-13T02:11:43.914Z,102108.16
2022-10-13T02:14:32.279Z,102101.19
2022-10-13T02:17:11.923Z,102096.72
2022-10-13T02:19:54.291Z,102098.47
2022-10-13T02:22:31.192Z,102099.28
2022-10-13T02:25:05.323Z,102099.28
2022-10-13T02:27:32.844Z,102106.31
2022-10-13T02:30:03.422Z,102108.06
2022-10-13T02:32:34.261Z,102115.13
2022-10-13T02:35:03.967Z,102110.78
2022-10-13T02:37:34.565Z,102107.19
2022-10-13T02:40:06.590Z,102110.72
2022-10-13T02:42:34.603Z,102108.97
2022-10-13T02:45:13.913Z,102108.97
2022-10-13T02:47:47.898Z,102111.59
2022-10-13T02:50:21.013Z,102107.25
2022-10-13T02:52:54.206Z,102102.00
2022-10-13T02:55:22.262Z,102100.25
2022-10-13T02:58:15.982Z,102097.59
2022-10-13T03:01:15.273Z,102095.88
2022-10-13T03:03:49.301Z,102090.59
2022-10-13T03:06:22.677Z,102100.31
2022-10-13T03:08:55.691Z,102092.34
2022-10-13T03:11:34.600Z,102085.31
2022-10-13T03:14:07.399Z,102085.34
2022-10-13T03:16:50.896Z,102081.78
2022-10-13T03:19:26.023Z,102078.22
2022-10-13T03:21:53.274Z,102078.28
2022-10-13T03:24:41.461Z,102081.78
2022-10-13T03:27:16.541Z,102080.09
2022-10-13T03:29:51.173Z,102072.16
2022-10-13T03:32:30.379Z,102068.66
2022-10-13T03:35:07.844Z,102068.59
2022-10-13T03:37:35.399Z,102076.53
2022-10-13T03:40:05.642Z,102070.38
2022-10-13T03:42:40.128Z,102080.03
2022-10-13T03:45:07.912Z,102081.78
2022-10-13T03:47:39.340Z,102080.03
2022-10-13T03:50:10.398Z,102084.34
2022-10-13T03:52:38.308Z,102079.97
2022-10-13T03:55:06.013Z,102079.06
2022-10-13T03:57:40.045Z,102080.75
2022-10-13T04:00:14.074Z,102079.84
2022-10-13T04:02:53.739Z,102083.31
2022-10-13T04:05:26.491Z,102088.47
2022-10-13T04:08:01.254Z,102078.84
2022-10-13T04:10:31.221Z,102075.28
2022-10-13T04:13:09.058Z,102081.44
2022-10-13T04:15:49.272Z,102076.16
2022-10-13T04:18:16.727Z,102080.56
2022-10-13T04:20:51.002Z,102083.09
2022-10-13T04:23:20.886Z,102085.81
2022-10-13T04:26:01.015Z,102080.53
2022-10-13T04:28:38.382Z,102083.91
2022-10-13T04:31:09.132Z,102088.25
2022-10-13T04:33:39.421Z,102085.59
2022-10-13T04:36:16.030Z,102092.53
2022-10-13T04:38:47.287Z,102089.03
2022-10-13T04:41:16.901Z,102088.22
2022-10-13T04:43:47.568Z,102089.97
2022-10-13T04:46:24.258Z,102096.94
2022-10-13T04:49:01.866Z,102108.34
2022-10-13T04:51:36.552Z,102109.22
2022-10-13T04:54:10.767Z,102101.31
2022-10-13T04:56:49.866Z,102104.00
2022-10-13T04:59:26.662Z,102113.66
2022-10-13T05:01:57.622Z,102108.41
2022-10-13T05:04:33.331Z,102118.06
2022-10-13T05:07:17.589Z,102120.72
2022-10-13T05:09:53.592Z,102117.22
2022-10-13T05:12:27.158Z,102125.13
2022-10-13T05:14:58.247Z,102115.41
2022-10-13T05:17:35.530Z,102116.25
2022-10-13T05:20:14.871Z,102113.63
2022-10-13T05:22:44.808Z,102101.28
2022-10-13T05:25:15.982Z,102107.56
2022-10-13T05:27:46.537Z,102104.03
2022-10-13T05:30:17.355Z,102088.22
2022-10-13T05:32:53.953Z,102088.97
2022-10-13T05:35:27.303Z,102093.38
2022-10-13T05:37:57.287Z,102089.88
2022-10-13T05:40:31.653Z,102091.63
2022-10-13T05:43:01.159Z,102087.19
2022-10-13T05:45:33.319Z,102096.06
2022-10-13T05:48:01.557Z,102093.38
2022-10-13T05:50:31.278Z,102088.97
2022-10-13T05:53:01.765Z,102075.69
2022-10-13T05:55:32.166Z,102075.63
2022-10-13T05:57:59.479Z,102077.47
2022-10-13T06:00:28.131Z,102071.41
2022-10-13T06:03:25.078Z,102071.31
2022-10-13T06:06:10.427Z,102071.31
2022-10-13T06:08:39.444Z,102071.28
2022-10-13T06:11:21.938Z,102069.59
2022-10-13T06:13:51.789Z,102071.25
2022-10-13T06:18:47.372Z,102075.72
2022-10-13T06:21:17.665Z,102078.38
2022-10-13T06:23:45.093Z,102084.59
2022-10-13T06:26:15.290Z,102088.88
2022-10-13T06:28:50.451Z,102096.88
2022-10-13T06:31:21.520Z,102102.88
2022-10-13T06:33:50.119Z,102097.50
2022-10-13T06:36:20.956Z,102102.09
2022-10-13T06:38:48.095Z,102096.75
2022-10-13T06:41:23.985Z,102100.31
2022-10-13T06:43:58.044Z,102107.44
2022-10-13T06:46:31.540Z,102106.59
2022-10-13T06:48:59.657Z,102102.28
2022-10-13T06:51:34.873Z,102108.28
2022-10-13T06:54:08.716Z,102099.44
2022-10-13T06:56:37.386Z,102108.19
2022-10-13T06:59:10.861Z,102110.16
2022-10-13T07:01:43.027Z,102111.97
2022-10-13T07:04:13.260Z,102112.81
2022-10-13T07:06:44.086Z,102118.97
2022-10-13T07:09:12.364Z,102119.81
2022-10-13T07:11:39.541Z,102118.09
2022-10-13T07:14:07.072Z,102125.94
2022-10-13T07:16:34.522Z,102128.69
2022-10-13T07:19:02.281Z,102130.38
2022-10-13T07:21:31.430Z,102137.44
2022-10-13T07:24:06.683Z,102132.16
2022-10-13T07:26:37.846Z,102146.31
2022-10-13T07:29:05.645Z,102139.38
2022-10-13T07:31:32.910Z,102142.03
2022-10-13T07:34:01.666Z,102146.53
2022-10-13T07:36:30.389Z,102150.06
2022-10-13T07:39:04.799Z,102146.56
2022-10-13T07:41:38.361Z,102151.06
2022-10-13T07:44:08.899Z,102156.34
2022-10-13T07:46:38.518Z,102149.47
2022-10-13T07:49:06.099Z,102153.03
2022-10-13T07:51:35.941Z,102152.25
2022-10-13T07:54:03.683Z,102152.31
2022-10-13T07:56:35.776Z,102150.66
2022-10-13T07:59:09.891Z,102152.47
2022-10-13T08:01:41.394Z,102146.47
2022-10-13T08:04:14.207Z,102150.09
2022-10-13T08:06:45.402Z,102157.25
2022-10-13T08:09:21.231Z,102160.84
2022-10-13T08:11:48.963Z,102158.22
2022-10-13T08:14:16.478Z,102162.59
2022-10-13T08:16:49.919Z,102159.03
2022-10-13T08:19:26.742Z,102153.66
2022-10-13T08:21:59.522Z,102152.66
2022-10-13T08:24:33.925Z,102153.38
2022-10-13T08:27:04.848Z,102147.06
2022-10-13T08:29:37.436Z,102140.81
2022-10-13T08:32:05.030Z,102133.56
2022-10-13T08:34:34.946Z,102131.50
2022-10-13T08:37:05.107Z,102127.72
2022-10-13T08:39:43.274Z,102121.31
2022-10-13T08:42:19.003Z,102117.41
2022-10-13T08:48:05.114Z,102108.00
2022-10-13T08:50:38.506Z,102117.44
2022-10-13T08:53:21.330Z,102120.00
2022-10-13T08:55:59.059Z,102115.94
2022-10-13T08:58:41.698Z,102117.50
2022-10-13T09:01:18.880Z,102118.78
2022-10-13T09:04:26.870Z,102114.09
2022-10-13T09:07:12.192Z,102125.97
2022-10-13T09:09:42.266Z,102114.38
2022-10-13T09:12:12.898Z,102121.28
2022-10-13T09:14:59.323Z,102123.13
2022-10-13T09:20:20.855Z,102116.53
2022-10-13T09:23:17.815Z,102111.16
2022-10-13T09:25:50.892Z,102100.28
2022-10-13T09:28:28.023Z,102104.91
2022-10-13T09:31:11.703Z,102108.25
2022-10-13T09:33:41.877Z,102107.34
2022-10-13T09:36:12.109Z,102106.31
2022-10-13T09:38:44.943Z,102093.94
2022-10-13T09:41:15.256Z,102091.09
2022-10-13T09:43:51.322Z,102094.84
2022-10-13T09:46:47.135Z,102091.38
2022-10-13T09:49:44.841Z,102099.41
2022-10-13T09:52:23.115Z,102098.53
2022-10-13T09:55:03.280Z,102103.34
2022-10-13T09:57:55.730Z,102101.25
2022-10-13T10:00:30.366Z,102093.75
2022-10-13T10:03:23.868Z,102087.09
2022-10-13T10:06:16.463Z,102093.88
2022-10-13T10:09:12.441Z,102092.88
2022-10-13T10:11:52.136Z,102092.00
2022-10-13T10:14:33.579Z,102090.47
2022-10-13T10:17:16.703Z,102085.94
2022-10-13T10:19:52.346Z,102092.69
2022-10-13T10:22:37.759Z,102083.72
2022-10-13T10:25:38.131Z,102077.69
2022-10-13T10:28:13.437Z,102073.91
2022-10-13T10:31:14.273Z,102068.25
2022-10-13T10:34:29.344Z,102068.31
2022-10-13T10:37:35.591Z,102068.69
2022-10-13T10:40:18.420Z,102066.31
2022-10-13T10:43:24.848Z,102072.38
2022-10-13T10:46:01.542Z,102067.75
2022-10-13T10:48:39.238Z,102064.19
2022-10-13T10:51:16.677Z,102058.78
2022-10-13T10:53:58.257Z,102059.06
2022-10-13T10:56:46.391Z,102049.28
2022-10-13T10:59:35.269Z,102061.50
2022-10-13T11:02:22.269Z,102054.09
2022-10-13T11:05:06.081Z,102054.88
2022-10-13T11:07:47.647Z,102048.53
2022-10-13T11:10:30.013Z,102055.84
2022-10-13T11:13:17.277Z,102045.78
2022-10-13T11:15:52.237Z,102044.94
2022-10-13T11:19:20.258Z,102050.69
2022-10-13T11:22:10.435Z,102042.41
2022-10-13T11:24:39.273Z,102040.03
2022-10-13T11:27:42.079Z,102044.47
2022-10-13T11:30:54.641Z,102036.56
2022-10-13T11:33:40.328Z,102025.84
2022-10-13T11:36:48.601Z,102015.97
2022-10-13T11:39:28.468Z,102026.00
2022-10-13T11:42:21.949Z,102008.22
2022-10-13T11:45:00.578Z,102003.47
2022-10-13T11:48:01.768Z,101993.31
2022-10-13T11:50:53.619Z,101989.03
2022-10-13T11:53:48.021Z,101986.72
2022-10-13T11:56:48.464Z,101978.03
2022-10-13T11:59:40.344Z,101972.00
2022-10-13T12:02:10.489Z,101949.50
2022-10-13T12:04:46.560Z,101943.16
2022-10-13T12:07:22.183Z,101946.22
2022-10-13T12:09:55.220Z,101939.75
2022-10-13T12:12:34.376Z,101917.00
2022-10-13T12:15:30.546Z,101918.47
2022-10-13T12:18:02.703Z,101925.38
2022-10-13T12:20:33.389Z,101919.75
2022-10-13T12:23:05.503Z,101921.88
2022-10-13T12:25:42.931Z,101915.47
2022-10-13T12:28:23.524Z,101911.72
2022-10-13T12:30:54.271Z,101904.34
2022-10-13T12:33:34.881Z,101904.16
2022-10-13T12:36:19.436Z,101893.28
2022-10-13T12:38:55.658Z,101897.38
2022-10-13T12:41:32.893Z,101881.41
2022-10-13T12:44:08.339Z,101882.75
2022-10-13T12:46:56.741Z,101879.38
2022-10-13T12:49:30.282Z,101881.25
2022-10-13T12:52:12.520Z,101869.06
2022-10-13T12:54:52.838Z,101859.06
2022-10-13T12:57:41.916Z,101858.19
2022-10-13T13:00:27.347Z,101870.81
2022-10-13T13:03:07.829Z,101861.25
2022-10-13T13:05:52.937Z,101859.94
2022-10-13T13:08:35.335Z,101862.09
2022-10-13T13:11:07.559Z,101860.22
2022-10-13T13:13:39.210Z,101862.66
2022-10-13T13:16:19.344Z,101857.41
2022-10-13T13:18:49.918Z,101849.00
2022-10-13T13:21:20.515Z,101842.84
2022-10-13T13:23:53.733Z,101865.81
2022-10-13T13:26:24.507Z,101868.03
2022-10-13T13:29:00.809Z,101855.78
2022-10-13T13:31:41.015Z,101858.53
2022-10-13T13:34:08.948Z,101841.03
2022-10-13T13:36:40.743Z,101845.66
2022-10-13T13:39:19.697Z,101842.41
2022-10-13T13:41:47.730Z,101833.25
2022-10-13T13:44:18.475Z,101846.03
2022-10-13T13:46:48.953Z,101833.44
2022-10-13T13:49:19.847Z,101840.88
2022-10-13T13:51:50.733Z,101838.94
2022-10-13T13:54:22.733Z,101834.16
2022-10-13T13:56:58.599Z,101823.78
2022-10-13T13:59:27.323Z,101835.63
2022-10-13T14:01:58.019Z,101821.09
2022-10-13T14:04:30.586Z,101825.78
2022-10-13T14:07:01.168Z,101821.72
2022-10-13T14:09:31.845Z,101817.72
2022-10-13T14:12:04.352Z,101826.28
2022-10-13T14:14:39.583Z,101821.13
2022-10-13T14:17:13.111Z,101827.53
2022-10-13T14:19:55.110Z,101818.75
2022-10-13T14:22:42.449Z,101814.63
2022-10-13T14:25:31.122Z,101810.13
2022-10-13T14:28:12.555Z,101816.16
2022-10-13T14:31:10.227Z,101812.66
2022-10-13T14:33:39.228Z,101821.38
2022-10-13T14:39:12.441Z,101820.59
2022-10-13T14:41:48.131Z,101818.88
2022-10-13T14:44:22.123Z,101827.31
2022-10-13T14:46:56.044Z,101821.81
2022-10-13T14:49:34.128Z,101817.22
2022-10-13T14:52:07.348Z,101816.38
2022-10-13T14:55:07.911Z,101822.72
2022-10-13T14:57:41.180Z,101811.16
2022-10-13T15:00:31.112Z,101807.94
2022-10-13T15:03:22.615Z,101817.69
2022-10-13T15:06:11.595Z,101823.28
2022-10-13T15:09:03.465Z,101818.50
2022-10-13T15:11:52.645Z,101818.88
2022-10-13T15:14:41.948Z,101822.00
2022-10-13T15:17:32.334Z,101818.59
2022-10-13T15:20:22.724Z,101822.94
2022-10-13T15:22:57.125Z,101825.44
2022-10-13T15:25:24.838Z,101809.53
2022-10-13T15:28:01.180Z,101823.50
2022-10-13T15:30:39.238Z,101817.34
2022-10-13T15:33:23.352Z,101814.66
2022-10-13T15:36:08.829Z,101814.34
2022-10-13T15:39:09.863Z,101810.41
2022-10-13T15:41:42.050Z,101823.09
2022-10-13T15:44:09.773Z,101808.66
2022-10-13T15:47:06.641Z,101814.31
2022-10-13T15:49:41.626Z,101820.50
2022-10-13T15:52:20.548Z,101818.03
2022-10-13T15:54:57.135Z,101843.72
2022-10-13T15:57:31.349Z,101823.59
2022-10-13T16:03:18.643Z,101838.97
2022-10-13T16:06:09.063Z,101833.88
2022-10-13T16:09:03.168Z,101836.53
2022-10-13T16:11:46.572Z,101838.50
2022-10-13T16:14:30.001Z,101838.22
2022-10-13T16:17:07.295Z,101840.94
2022-10-13T16:20:01.921Z,101858.72
2022-10-13T16:22:41.788Z,101850.41
2022-10-13T16:25:18.894Z,101847.69
2022-10-13T16:28:04.690Z,101864.19
2022-10-13T16:30:49.137Z,101861.19
2022-10-13T16:33:19.284Z,101875.19
2022-10-13T16:35:46.827Z,101874.53
2022-10-13T16:38:14.822Z,101882.47
2022-10-13T16:40:42.754Z,101885.22
2022-10-13T16:43:10.838Z,101890.50
2022-10-13T16:45:59.274Z,101892.69
2022-10-13T16:48:31.345Z,101896.75
2022-10-13T16:51:01.596Z,101896.78
2022-10-13T16:53:33.359Z,101888.69
2022-10-13T16:56:01.480Z,101897.63
2022-10-13T16:58:33.895Z,101898.47
2022-10-13T17:01:09.836Z,101898.38
2022-10-13T17:03:39.534Z,101912.72
2022-10-13T17:06:11.329Z,101919.09
2022-10-13T17:08:39.506Z,101925.34
2022-10-13T17:11:07.982Z,101921.59
2022-10-13T17:13:39.757Z,101921.69
2022-10-13T17:16:07.428Z,101932.75
2022-10-13T17:18:35.002Z,101928.72
2022-10-13T17:21:06.254Z,101938.53
2022-10-13T17:23:34.079Z,101934.88
2022-10-13T17:26:04.221Z,101939.16
2022-10-13T17:28:36.619Z,101940.16
2022-10-13T17:31:14.171Z,101940.19
2022-10-13T17:33:45.438Z,101937.50
2022-10-13T17:36:16.641Z,101941.84
2022-10-13T17:38:48.682Z,101938.47
2022-10-13T17:41:17.916Z,101945.81
2022-10-13T17:43:54.705Z,101944.84
2022-10-13T17:46:38.337Z,101954.63
2022-10-13T17:49:11.682Z,101962.81
2022-10-13T17:51:41.446Z,101957.34
2022-10-13T17:54:15.758Z,101966.31
2022-10-13T17:56:44.694Z,101974.34
2022-10-13T17:59:16.716Z,101969.09
2022-10-13T18:01:46.337Z,101968.38
2022-10-13T18:04:20.918Z,101976.97
2022-10-13T18:06:49.061Z,101982.25
2022-10-13T18:09:20.886Z,101963.06
2022-10-13T18:11:53.090Z,101970.03
2022-10-13T18:14:23.270Z,101973.53
2022-10-13T18:16:59.782Z,101961.97
2022-10-13T18:19:36.540Z,101971.75
2022-10-13T18:22:09.850Z,101968.09
2022-10-13T18:24:42.944Z,101976.97
2022-10-13T18:27:11.928Z,101970.16
2022-10-13T18:29:44.052Z,101979.97
2022-10-13T18:32:13.478Z,101986.91
2022-10-13T18:34:43.318Z,101994.81
2022-10-13T18:37:13.448Z,101991.09
2022-10-13T18:39:46.679Z,101991.16
2022-10-13T18:42:19.909Z,101987.66
2022-10-13T18:44:57.611Z,101994.81
2022-10-13T18:47:29.055Z,102001.91
2022-10-13T18:49:56.928Z,101993.94
2022-10-13T18:52:29.521Z,102001.75
2022-10-13T18:55:03.460Z,102002.00
2022-10-13T18:58:08.251Z,102002.06
2022-10-13T19:00:38.549Z,101998.47
2022-10-13T19:03:11.246Z,101999.31
2022-10-13T19:05:40.349Z,102008.25
2022-10-13T19:08:21.348Z,102005.59
2022-10-13T19:10:52.716Z,102002.84
2022-10-13T19:13:31.951Z,101998.50
2022-10-13T19:16:01.611Z,101999.31
2022-10-13T19:18:36.589Z,102002.03
2022-10-13T19:21:07.400Z,101996.78
2022-10-13T19:23:38.331Z,101999.38
2022-10-13T19:26:32.044Z,101989.69
2022-10-13T19:29:24.834Z,101991.50
2022-10-13T19:31:52.756Z,101996.78
2022-10-13T19:37:26.990Z,101996.75
2022-10-13T19:39:55.178Z,101994.06
2022-10-13T19:42:27.860Z,102005.66
2022-10-13T19:45:06.474Z,101999.41
2022-10-13T19:47:53.536Z,102002.13
2022-10-13T19:50:30.831Z,102007.38
2022-10-13T19:52:59.340Z,102004.75
2022-10-13T19:55:33.463Z,102008.34
2022-10-13T19:58:01.802Z,102000.28
2022-10-13T20:00:36.059Z,102009.16
2022-10-13T20:03:08.080Z,102002.97
2022-10-13T20:05:40.663Z,101995.91
2022-10-13T20:08:14.869Z,101995.84
2022-10-13T20:10:45.235Z,101997.63
2022-10-13T20:13:12.998Z,101995.81
2022-10-13T20:15:48.891Z,102002.88
2022-10-13T20:18:29.331Z,102009.91
2022-10-13T20:21:09.803Z,102008.22
2022-10-13T20:23:45.937Z,102011.75
2022-10-13T20:29:13.349Z,102024.16
2022-10-13T20:31:49.280Z,102017.91
2022-10-13T20:34:24.971Z,102020.53
2022-10-13T20:37:03.943Z,102022.28
2022-10-13T20:39:49.282Z,102020.47
2022-10-13T20:42:25.583Z,102014.25
2022-10-13T20:44:59.416Z,102020.41
2022-10-13T20:47:33.805Z,102015.06
2022-10-13T20:50:10.379Z,102020.34
2022-10-13T20:52:47.011Z,102022.09
2022-10-13T20:55:31.715Z,102021.19
2022-10-13T20:58:12.618Z,102014.13
2022-10-13T21:01:12.460Z,102020.34
2022-10-13T21:03:48.569Z,102007.97
2022-10-13T21:06:31.721Z,102004.44
2022-10-13T21:09:12.221Z,102007.94
2022-10-13T21:11:48.479Z,102010.53
2022-10-13T21:14:32.363Z,102010.53
2022-10-13T21:17:29.214Z,102011.47
2022-10-13T21:20:36.848Z,102011.50
2022-10-13T21:23:23.972Z,102022.97
2022-10-13T21:26:06.109Z,102013.28
2022-10-13T21:28:57.960Z,102021.22
2022-10-13T21:31:40.161Z,102022.16
2022-10-13T21:34:27.301Z,102016.88
2022-10-13T21:37:24.063Z,102017.75
2022-10-13T21:40:11.389Z,102016.88
2022-10-13T21:42:58.190Z,102015.16
2022-10-13T21:45:27.399Z,102017.78
2022-10-13T21:48:03.504Z,102030.16
2022-10-13T21:50:39.888Z,102014.31
2022-10-13T21:53:12.151Z,102022.22
2022-10-13T21:55:45.894Z,102017.88
2022-10-13T21:58:23.173Z,102016.09
2022-10-13T22:01:04.665Z,102021.41
2022-10-13T22:03:38.667Z,102023.16
2022-10-13T22:06:27.715Z,102020.47
2022-10-13T22:09:07.123Z,102017.88
2022-10-13T22:11:46.512Z,102017.00
2022-10-13T22:14:22.154Z,102009.06
2022-10-13T22:17:10.922Z,102011.72
2022-10-13T22:19:43.246Z,102013.47
2022-10-13T22:22:17.826Z,102016.16
2022-10-13T22:24:54.081Z,102003.78
2022-10-13T22:27:28.192Z,102007.31
2022-10-13T22:29:58.527Z,102003.78
2022-10-13T22:32:37.383Z,102005.53
2022-10-13T22:35:13.040Z,102003.78
2022-10-13T22:37:48.732Z,102003.78
2022-10-13T22:40:22.597Z,102003.81
2022-10-13T22:42:59.055Z,102002.94
2022-10-13T22:45:32.818Z,101996.75
2022-10-13T22:48:05.092Z,102002.94
2022-10-13T22:50:34.849Z,102002.94
2022-10-13T22:55:48.913Z,101998.56
2022-10-13T22:58:22.619Z,101998.56
2022-10-13T23:00:50.918Z,101996.78
2022-10-13T23:03:21.146Z,101997.63
2022-10-13T23:05:57.643Z,102004.69
2022-10-13T23:08:29.129Z,102004.72
2022-10-13T23:10:58.689Z,102002.06
2022-10-13T23:13:30.132Z,102002.06
2022-10-13T23:16:23.759Z,102004.72
2022-10-13T23:19:01.133Z,102006.50
2022-10-13T23:21:37.068Z,102002.09
2022-10-13T23:24:07.558Z,101995.03
2022-10-13T23:26:49.945Z,102004.75
2022-10-13T23:29:17.668Z,102000.34
2022-10-13T23:31:47.805Z,101994.16
2022-10-13T23:34:20.370Z,101987.13
2022-10-13T23:36:52.335Z,101996.84
2022-10-13T23:39:22.940Z,101991.53
2022-10-13T23:41:57.053Z,101984.50
2022-10-13T23:44:29.782Z,101982.75
2022-10-13T23:46:58.263Z,101979.22
2022-10-13T23:49:31.592Z,101977.44
2022-10-13T23:52:08.564Z,101978.38
2022-10-13T23:54:41.779Z,101987.16
2022-10-13T23:57:10.285Z,101989.81
